Monument, OR

3:36 AM PDT on August 21, 2014 (GMT -0700)
RAWS BOARD CREEK OR US | Change Station
CLOSE
Current Station
Personal Weather Station
Location: Long Creek, OR
Elevation: 4770 ft
Nearby Weather Stations

Elev 4770 ft 44.60 °N, 119.31 °W | Updated 1 hour ago

Clear
Clear
42 °F
Feels Like 42 °F
N
3
Wind Variable Wind from WSW
Gusts 5.0 mph

Today
High -- | Low -- °F
--% Chance of Precip.
Yesterday
High -- | Low -- °F
Precip. -- in
6:06 AM 7:52 PM
Waning Crescent, 15% visible
Pressure 30.03 in
Visibility 10.0 miles
Clouds Clear
Windchill 42 °F
Dew Point 32 °F
Humidity 67%
Rainfall 0.00 in
Snow Depth Not available.
UV 0 out of 12
Pollen 6.20 out of 12
Air Quality Not available.
Flu Activity Not available.
METAR KGCD 211015Z AUTO 23005KT 10SM CLR 12/02 A3003 RMK AO2 T01170015

More Conditions Fewer Conditions

Pressure 30.03 in
Visibility 10.0 miles
Clouds Clear
Windchill 42 °F
Dew Point 32 °F
Humidity 67%
Rainfall 0.00 in
Snow Depth Not available.
UV 0 out of 12
Pollen 6.20 out of 12
Air Quality Not available.
Flu Activity Not available.
METAR KGCD 211015Z AUTO 23005KT 10SM CLR 12/02 A3003 RMK AO2 T01170015

More Conditions Fewer Conditions

10-Day Weather Forecast

Almanac

Astronomy

Aug. 21, 2014 Rise Set
Actual Time 6:06 AM PDT 7:52 PM PDT
Civil Twilight 5:35 AM PDT 8:23 PM PDT
Nautical Twilight 4:58 AM PDT 9:01 PM PDT
Astronomical Twilight 4:16 AM PDT 9:42 PM PDT
Moon 2:37 AM PDT 5:28 PM PDT
Length of Visible Light 14h 47m
Length of Day
13h 45m
Tomorrow will be 2m 51s shorter.
Waning Crescent, 15% of the Moon is Illuminated
Today
Waning Crescent
Aug 25
New
Sep 2
First Quarter
Sep 8
Full
Sep 15
Last Quarter

Today's Extremes

State Highs State Lows

Community

WunderPhotos

Upload Photos

1,745,871 photos uploaded!

Nearby

Snow Depth

Station Depth Elevation
Starr Ridge 0 in 5300 ft
Derr 0 in 5670 ft
Madison Butte 0 in 5250 ft
Arbuckle Mountain 0 in 5400 ft
Lake Creek R.S. 0 in 5200 ft

Earthquake Activity

City Distance Mag. Time & Date
No recent earthquake activity has been reported nearby.
Minimum magnitude displayed is 2.5.

Coastal Water Temperatures

Place Temperature
No Stations Reporting

Nearby Weather Stations